New Ashford, Massachusetts
Current Conditions -  °F | °C
As of 8:52 AM on Monday 26 Jan 2015 (Local Time) from KAQW Reporting Station
Overcast Overcast  
Wind Chill: 10°   Ceiling: 8000
Heat Index: 10°   Visibility: 10mi
Dew Point:   Wind: 3mph
Humidity: 67%   Direction: 300°WNW
Pressure: 30.06"   Gusts: NA
Location:  42.5714°N, 73.2564°W
Report Text: KAQW 261352Z AUTO 30003KT 10SM FEW060 OVC080 M12/M17 A3006 RMK AO2 SLP194 T11221172
Loading
Personal Weather Stations






























Interactive Weather Map New forecast layout! Learn more

10-Day Weather Forecast

Advertisements
Track Severe Weather on mobile